Campbellton, FL

11:03 AM CDT on October 01, 2014 (GMT -0500)
Marianna Municipal | Change Station
CLOSE
Current Station
Airport
Location: Marianna,
Elevation: 112 ft
Nearby Weather Stations

Elev 112 ft 30.84 °N, 85.18 °W | Updated 1 hour ago

Overcast
Overcast
72 °F
Feels Like 72 °F
N
6
Wind Variable Wind from ENE

Today
High -- | Low -- °F
--% Chance of Precip.
Yesterday
High -- | Low -- °F
Precip. -- in
6:35 AM 6:26 PM
Waxing Crescent, 48% visible
Pressure 29.99 in
Visibility 10.0 miles
Clouds Few 2600 ft
Overcast 4200 ft
Dew Point 71 °F
Humidity 97%
Rainfall 0.00 in
Snow Depth Not available.
UV 2 out of 12
Pollen 8.40 out of 12
Air Quality Not available.
Flu Activity Not available.
METAR KMAI 011453Z AUTO 06005KT 10SM FEW026 OVC042 22/22 A3000 RMK AO2 SLP156 T02220217 52015 $

More Conditions Fewer Conditions

Pressure 29.99 in
Visibility 10.0 miles
Clouds Few 2600 ft
Overcast 4200 ft
Dew Point 71 °F
Humidity 97%
Rainfall 0.00 in
Snow Depth Not available.
UV 2 out of 12
Pollen 8.40 out of 12
Air Quality Not available.
Flu Activity Not available.
METAR KMAI 011453Z AUTO 06005KT 10SM FEW026 OVC042 22/22 A3000 RMK AO2 SLP156 T02220217 52015 $

More Conditions Fewer Conditions

10-Day Weather Forecast

Almanac

Astronomy

Oct. 01, 2014 Rise Set
Actual Time 6:35 AM CDT 6:26 PM CDT
Civil Twilight 6:10 AM CDT 6:50 PM CDT
Nautical Twilight 5:42 AM CDT 7:18 PM CDT
Astronomical Twilight 5:14 AM CDT 7:46 PM CDT
Moon 1:18 PM CDT No Moon Set
Length of Visible Light 12h 39m
Length of Day
11h 51m
Tomorrow will be 1m 52s shorter.
Waxing Crescent, 48% of the Moon is Illuminated
Today
Waxing Crescent
Oct 1
First Quarter
Oct 8
Full
Oct 15
Last Quarter
Oct 23
New

Today's Extremes

State Highs State Lows

Community

WunderPhotos

Upload Photos

1,757,968 photos uploaded!

WunderBlogs® & News

Nearby

Snow Depth

Station Depth Elevation
No new snow has been reported.

Earthquake Activity

City Distance Mag. Time & Date
No recent earthquake activity has been reported nearby.
Minimum magnitude displayed is 2.5.

Coastal Water Temperatures

Place Temperature
No Stations Reporting

Nearby Weather Stations